sensor_id;sensor_type;location;lat;lon;timestamp;P1;durP1;ratioP1;P2;durP2;ratioP2
76576;SDS011;65441;44.748;37.600;2022-12-18T00:00:02;8.27;;;2.13;;
76576;SDS011;65441;44.748;37.600;2022-12-18T00:02:45;6.30;;;2.28;;
76576;SDS011;65441;44.748;37.600;2022-12-18T00:05:19;7.45;;;2.63;;
76576;SDS011;65441;44.748;37.600;2022-12-18T00:07:53;7.78;;;2.65;;
76576;SDS011;65441;44.748;37.600;2022-12-18T00:10:27;7.25;;;2.20;;
76576;SDS011;65441;44.748;37.600;2022-12-18T00:13:01;6.45;;;2.17;;
76576;SDS011;65441;44.748;37.600;2022-12-18T00:15:36;8.23;;;2.40;;
76576;SDS011;65441;44.748;37.600;2022-12-18T00:18:11;6.22;;;2.30;;
76576;SDS011;65441;44.748;37.600;2022-12-18T00:20:45;7.47;;;2.22;;
76576;SDS011;65441;44.748;37.600;2022-12-18T00:23:18;6.72;;;2.38;;
76576;SDS011;65441;44.748;37.600;2022-12-18T00:25:52;8.75;;;2.42;;
76576;SDS011;65441;44.748;37.600;2022-12-18T00:28:26;5.35;;;2.05;;
76576;SDS011;65441;44.748;37.600;2022-12-18T00:31:02;5.53;;;2.40;;
76576;SDS011;65441;44.748;37.600;2022-12-18T00:33:36;6.30;;;2.35;;
76576;SDS011;65441;44.748;37.600;2022-12-18T00:36:10;6.45;;;2.22;;
76576;SDS011;65441;44.748;37.600;2022-12-18T00:38:45;6.28;;;2.20;;
76576;SDS011;65441;44.748;37.600;2022-12-18T00:41:23;6.22;;;2.13;;
76576;SDS011;65441;44.748;37.600;2022-12-18T00:44:16;6.35;;;2.00;;
76576;SDS011;65441;44.748;37.600;2022-12-18T00:46:53;7.18;;;2.50;;
76576;SDS011;65441;44.748;37.600;2022-12-18T00:49:26;7.20;;;2.38;;
76576;SDS011;65441;44.748;37.600;2022-12-18T00:52:00;5.57;;;2.10;;
76576;SDS011;65441;44.748;37.600;2022-12-18T00:54:34;9.02;;;2.42;;
76576;SDS011;65441;44.748;37.600;2022-12-18T00:57:08;6.68;;;2.53;;
76576;SDS011;65441;44.748;37.600;2022-12-18T00:59:41;8.07;;;2.80;;
76576;SDS011;65441;44.748;37.600;2022-12-18T01:02:17;7.43;;;2.30;;
76576;SDS011;65441;44.748;37.600;2022-12-18T01:04:51;6.60;;;2.50;;
76576;SDS011;65441;44.748;37.600;2022-12-18T01:07:25;7.35;;;2.30;;
76576;SDS011;65441;44.748;37.600;2022-12-18T01:09:59;6.70;;;2.33;;
76576;SDS011;65441;44.748;37.600;2022-12-18T01:15:07;5.82;;;2.10;;
76576;SDS011;65441;44.748;37.600;2022-12-18T01:17:44;10.23;;;2.35;;
76576;SDS011;65441;44.748;37.600;2022-12-18T01:20:18;9.00;;;2.60;;
76576;SDS011;65441;44.748;37.600;2022-12-18T01:25:25;7.32;;;2.33;;
76576;SDS011;65441;44.748;37.600;2022-12-18T01:27:59;11.63;;;2.40;;
76576;SDS011;65441;44.748;37.600;2022-12-18T01:33:08;10.45;;;2.58;;
76576;SDS011;65441;44.748;37.600;2022-12-18T01:35:42;6.40;;;2.60;;
76576;SDS011;65441;44.748;37.600;2022-12-18T01:38:16;7.35;;;2.15;;
76576;SDS011;65441;44.748;37.600;2022-12-18T01:40:56;10.48;;;2.60;;
76576;SDS011;65441;44.748;37.600;2022-12-18T01:43:50;7.00;;;2.45;;
76576;SDS011;65441;44.748;37.600;2022-12-18T01:46:26;10.60;;;2.55;;
76576;SDS011;65441;44.748;37.600;2022-12-18T01:49:03;7.50;;;2.60;;
76576;SDS011;65441;44.748;37.600;2022-12-18T01:51:37;6.90;;;2.50;;
76576;SDS011;65441;44.748;37.600;2022-12-18T01:54:11;6.60;;;2.50;;
76576;SDS011;65441;44.748;37.600;2022-12-18T01:56:45;6.22;;;2.55;;
76576;SDS011;65441;44.748;37.600;2022-12-18T02:01:52;5.90;;;2.25;;
76576;SDS011;65441;44.748;37.600;2022-12-18T02:04:28;6.30;;;2.25;;
76576;SDS011;65441;44.748;37.600;2022-12-18T02:07:03;8.32;;;2.35;;
76576;SDS011;65441;44.748;37.600;2022-12-18T02:09:57;6.30;;;2.10;;
76576;SDS011;65441;44.748;37.600;2022-12-18T02:12:38;9.05;;;2.72;;
76576;SDS011;65441;44.748;37.600;2022-12-18T02:15:19;8.02;;;3.17;;
76576;SDS011;65441;44.748;37.600;2022-12-18T02:17:58;6.20;;;2.30;;
76576;SDS011;65441;44.748;37.600;2022-12-18T02:20:40;9.77;;;2.50;;
76576;SDS011;65441;44.748;37.600;2022-12-18T02:23:21;9.15;;;2.50;;
76576;SDS011;65441;44.748;37.600;2022-12-18T02:26:11;5.72;;;2.10;;
76576;SDS011;65441;44.748;37.600;2022-12-18T02:28:56;6.35;;;2.30;;
76576;SDS011;65441;44.748;37.600;2022-12-18T02:31:36;7.15;;;2.42;;
76576;SDS011;65441;44.748;37.600;2022-12-18T02:34:15;7.35;;;2.25;;
76576;SDS011;65441;44.748;37.600;2022-12-18T02:36:51;6.95;;;2.13;;
76576;SDS011;65441;44.748;37.600;2022-12-18T02:39:28;5.80;;;2.20;;
76576;SDS011;65441;44.748;37.600;2022-12-18T02:44:45;6.00;;;2.03;;
76576;SDS011;65441;44.748;37.600;2022-12-18T02:47:24;6.35;;;2.00;;
76576;SDS011;65441;44.748;37.600;2022-12-18T02:50:05;6.32;;;2.08;;
76576;SDS011;65441;44.748;37.600;2022-12-18T02:52:45;7.65;;;1.80;;
76576;SDS011;65441;44.748;37.600;2022-12-18T02:55:27;8.15;;;2.03;;
76576;SDS011;65441;44.748;37.600;2022-12-18T02:58:15;5.30;;;2.10;;
76576;SDS011;65441;44.748;37.600;2022-12-18T03:00:58;5.22;;;2.20;;
76576;SDS011;65441;44.748;37.600;2022-12-18T03:03:38;5.30;;;1.90;;
76576;SDS011;65441;44.748;37.600;2022-12-18T03:06:17;6.93;;;2.22;;
76576;SDS011;65441;44.748;37.600;2022-12-18T03:08:58;6.35;;;2.33;;
76576;SDS011;65441;44.748;37.600;2022-12-18T03:11:36;6.50;;;2.10;;
76576;SDS011;65441;44.748;37.600;2022-12-18T03:14:31;8.77;;;1.98;;
76576;SDS011;65441;44.748;37.600;2022-12-18T03:17:13;5.43;;;2.00;;
76576;SDS011;65441;44.748;37.600;2022-12-18T03:19:51;6.97;;;1.90;;
76576;SDS011;65441;44.748;37.600;2022-12-18T03:22:29;8.75;;;1.98;;
76576;SDS011;65441;44.748;37.600;2022-12-18T03:25:06;7.45;;;2.10;;
76576;SDS011;65441;44.748;37.600;2022-12-18T03:27:45;6.53;;;1.98;;
76576;SDS011;65441;44.748;37.600;2022-12-18T03:30:23;5.10;;;1.80;;
76576;SDS011;65441;44.748;37.600;2022-12-18T03:33:01;5.15;;;1.75;;
76576;SDS011;65441;44.748;37.600;2022-12-18T03:35:39;6.40;;;2.30;;
76576;SDS011;65441;44.748;37.600;2022-12-18T03:38:17;7.50;;;2.08;;
76576;SDS011;65441;44.748;37.600;2022-12-18T03:40:56;5.15;;;1.98;;
76576;SDS011;65441;44.748;37.600;2022-12-18T03:43:43;5.00;;;1.80;;
76576;SDS011;65441;44.748;37.600;2022-12-18T03:46:26;9.30;;;2.30;;
76576;SDS011;65441;44.748;37.600;2022-12-18T03:49:06;5.40;;;1.83;;
76576;SDS011;65441;44.748;37.600;2022-12-18T03:51:45;6.15;;;2.38;;
76576;SDS011;65441;44.748;37.600;2022-12-18T03:57:08;7.63;;;2.00;;
76576;SDS011;65441;44.748;37.600;2022-12-18T03:59:48;7.00;;;2.03;;
76576;SDS011;65441;44.748;37.600;2022-12-18T04:02:29;5.35;;;2.10;;
76576;SDS011;65441;44.748;37.600;2022-12-18T04:05:07;9.68;;;2.20;;
76576;SDS011;65441;44.748;37.600;2022-12-18T04:07:45;6.30;;;1.92;;
76576;SDS011;65441;44.748;37.600;2022-12-18T04:10:22;4.85;;;2.08;;
76576;SDS011;65441;44.748;37.600;2022-12-18T04:12:57;7.20;;;2.22;;
76576;SDS011;65441;44.748;37.600;2022-12-18T04:15:32;9.52;;;2.35;;
76576;SDS011;65441;44.748;37.600;2022-12-18T04:18:10;9.57;;;2.00;;
76576;SDS011;65441;44.748;37.600;2022-12-18T04:20:47;5.63;;;2.25;;
76576;SDS011;65441;44.748;37.600;2022-12-18T04:23:22;6.95;;;2.05;;
76576;SDS011;65441;44.748;37.600;2022-12-18T04:25:58;6.43;;;2.25;;
76576;SDS011;65441;44.748;37.600;2022-12-18T04:28:45;7.15;;;2.33;;
76576;SDS011;65441;44.748;37.600;2022-12-18T04:31:20;5.85;;;2.30;;
76576;SDS011;65441;44.748;37.600;2022-12-18T04:33:56;8.68;;;2.13;;
76576;SDS011;65441;44.748;37.600;2022-12-18T04:36:30;6.25;;;2.22;;
76576;SDS011;65441;44.748;37.600;2022-12-18T04:39:04;6.07;;;2.30;;
76576;SDS011;65441;44.748;37.600;2022-12-18T04:41:39;7.38;;;2.33;;
76576;SDS011;65441;44.748;37.600;2022-12-18T04:44:14;6.20;;;2.40;;
76576;SDS011;65441;44.748;37.600;2022-12-18T04:46:48;5.53;;;2.33;;
76576;SDS011;65441;44.748;37.600;2022-12-18T04:51:57;6.57;;;2.30;;
76576;SDS011;65441;44.748;37.600;2022-12-18T04:54:31;7.43;;;2.10;;
76576;SDS011;65441;44.748;37.600;2022-12-18T04:57:05;9.43;;;2.30;;
76576;SDS011;65441;44.748;37.600;2022-12-18T04:59:39;6.30;;;2.33;;
76576;SDS011;65441;44.748;37.600;2022-12-18T05:02:13;7.15;;;2.15;;
76576;SDS011;65441;44.748;37.600;2022-12-18T05:04:48;5.20;;;2.30;;
76576;SDS011;65441;44.748;37.600;2022-12-18T05:07:22;6.05;;;2.22;;
76576;SDS011;65441;44.748;37.600;2022-12-18T05:09:56;9.93;;;2.22;;
76576;SDS011;65441;44.748;37.600;2022-12-18T05:12:30;7.28;;;2.17;;
76576;SDS011;65441;44.748;37.600;2022-12-18T05:15:05;5.65;;;1.98;;
76576;SDS011;65441;44.748;37.600;2022-12-18T05:17:40;6.60;;;2.05;;
76576;SDS011;65441;44.748;37.600;2022-12-18T05:22:50;8.07;;;2.42;;
76576;SDS011;65441;44.748;37.600;2022-12-18T05:27:57;6.38;;;2.25;;
76576;SDS011;65441;44.748;37.600;2022-12-18T05:30:31;7.30;;;2.30;;
76576;SDS011;65441;44.748;37.600;2022-12-18T05:35:40;6.20;;;2.50;;
76576;SDS011;65441;44.748;37.600;2022-12-18T05:38:14;7.70;;;2.50;;
76576;SDS011;65441;44.748;37.600;2022-12-18T05:43:22;5.35;;;2.10;;
76576;SDS011;65441;44.748;37.600;2022-12-18T05:45:56;7.43;;;2.60;;
76576;SDS011;65441;44.748;37.600;2022-12-18T05:48:30;6.68;;;2.13;;
76576;SDS011;65441;44.748;37.600;2022-12-18T05:51:07;6.68;;;2.33;;
76576;SDS011;65441;44.748;37.600;2022-12-18T05:53:42;6.25;;;2.25;;
76576;SDS011;65441;44.748;37.600;2022-12-18T05:56:17;11.73;;;2.63;;
76576;SDS011;65441;44.748;37.600;2022-12-18T05:58:52;8.73;;;2.20;;
76576;SDS011;65441;44.748;37.600;2022-12-18T06:01:27;5.93;;;2.30;;
76576;SDS011;65441;44.748;37.600;2022-12-18T06:04:01;7.43;;;2.28;;
76576;SDS011;65441;44.748;37.600;2022-12-18T06:06:37;7.45;;;2.60;;
76576;SDS011;65441;44.748;37.600;2022-12-18T06:09:11;6.18;;;2.22;;
76576;SDS011;65441;44.748;37.600;2022-12-18T06:11:45;6.78;;;2.17;;
76576;SDS011;65441;44.748;37.600;2022-12-18T06:14:18;7.10;;;2.40;;
76576;SDS011;65441;44.748;37.600;2022-12-18T06:19:26;6.63;;;2.85;;
76576;SDS011;65441;44.748;37.600;2022-12-18T06:22:01;6.32;;;2.45;;
76576;SDS011;65441;44.748;37.600;2022-12-18T06:24:35;9.05;;;2.58;;
76576;SDS011;65441;44.748;37.600;2022-12-18T06:29:43;7.97;;;2.70;;
76576;SDS011;65441;44.748;37.600;2022-12-18T06:34:50;7.28;;;2.42;;
76576;SDS011;65441;44.748;37.600;2022-12-18T06:37:26;6.60;;;2.38;;
76576;SDS011;65441;44.748;37.600;2022-12-18T06:40:00;8.18;;;2.40;;
76576;SDS011;65441;44.748;37.600;2022-12-18T06:42:34;7.10;;;2.33;;
76576;SDS011;65441;44.748;37.600;2022-12-18T06:45:09;8.93;;;2.30;;
76576;SDS011;65441;44.748;37.600;2022-12-18T06:47:51;10.00;;;3.30;;
76576;SDS011;65441;44.748;37.600;2022-12-18T06:53:00;8.75;;;3.47;;
76576;SDS011;65441;44.748;37.600;2022-12-18T06:55:34;6.65;;;2.65;;
76576;SDS011;65441;44.748;37.600;2022-12-18T07:00:42;5.40;;;2.13;;
76576;SDS011;65441;44.748;37.600;2022-12-18T07:03:16;11.85;;;2.90;;
76576;SDS011;65441;44.748;37.600;2022-12-18T07:05:50;10.75;;;2.60;;
76576;SDS011;65441;44.748;37.600;2022-12-18T07:08:25;6.25;;;2.88;;
76576;SDS011;65441;44.748;37.600;2022-12-18T07:11:02;7.40;;;3.28;;
76576;SDS011;65441;44.748;37.600;2022-12-18T07:13:37;8.05;;;3.00;;
76576;SDS011;65441;44.748;37.600;2022-12-18T07:16:12;7.55;;;2.90;;
76576;SDS011;65441;44.748;37.600;2022-12-18T07:18:47;6.35;;;2.70;;
76576;SDS011;65441;44.748;37.600;2022-12-18T07:21:21;8.55;;;2.78;;
76576;SDS011;65441;44.748;37.600;2022-12-18T07:23:58;9.90;;;3.00;;
76576;SDS011;65441;44.748;37.600;2022-12-18T07:26:34;8.05;;;3.10;;
76576;SDS011;65441;44.748;37.600;2022-12-18T07:29:08;9.52;;;3.00;;
76576;SDS011;65441;44.748;37.600;2022-12-18T07:31:42;9.27;;;2.85;;
76576;SDS011;65441;44.748;37.600;2022-12-18T07:34:16;8.73;;;2.95;;
76576;SDS011;65441;44.748;37.600;2022-12-18T07:39:25;9.43;;;2.60;;
76576;SDS011;65441;44.748;37.600;2022-12-18T07:41:59;9.90;;;3.22;;
76576;SDS011;65441;44.748;37.600;2022-12-18T07:44:54;8.35;;;3.03;;
76576;SDS011;65441;44.748;37.600;2022-12-18T07:47:28;11.13;;;3.50;;
76576;SDS011;65441;44.748;37.600;2022-12-18T07:50:05;7.95;;;2.80;;
76576;SDS011;65441;44.748;37.600;2022-12-18T07:52:39;10.82;;;3.50;;
76576;SDS011;65441;44.748;37.600;2022-12-18T07:55:15;7.93;;;3.10;;
76576;SDS011;65441;44.748;37.600;2022-12-18T07:57:49;7.95;;;3.00;;
76576;SDS011;65441;44.748;37.600;2022-12-18T08:00:23;8.45;;;2.90;;
76576;SDS011;65441;44.748;37.600;2022-12-18T08:05:31;8.95;;;2.65;;
76576;SDS011;65441;44.748;37.600;2022-12-18T08:08:05;10.50;;;3.55;;
76576;SDS011;65441;44.748;37.600;2022-12-18T08:10:40;8.88;;;2.80;;
76576;SDS011;65441;44.748;37.600;2022-12-18T08:13:14;7.78;;;2.90;;
76576;SDS011;65441;44.748;37.600;2022-12-18T08:18:29;9.35;;;2.85;;
76576;SDS011;65441;44.748;37.600;2022-12-18T08:21:08;9.48;;;3.00;;
76576;SDS011;65441;44.748;37.600;2022-12-18T08:23:42;10.38;;;2.85;;
76576;SDS011;65441;44.748;37.600;2022-12-18T08:26:18;8.18;;;2.97;;
76576;SDS011;65441;44.748;37.600;2022-12-18T08:28:53;7.10;;;2.90;;
76576;SDS011;65441;44.748;37.600;2022-12-18T08:31:28;8.88;;;3.03;;
76576;SDS011;65441;44.748;37.600;2022-12-18T08:34:07;9.15;;;3.13;;
76576;SDS011;65441;44.748;37.600;2022-12-18T08:36:42;14.25;;;3.85;;
76576;SDS011;65441;44.748;37.600;2022-12-18T08:41:51;7.15;;;2.78;;
76576;SDS011;65441;44.748;37.600;2022-12-18T08:44:38;9.80;;;2.97;;
76576;SDS011;65441;44.748;37.600;2022-12-18T08:47:13;9.43;;;3.05;;
76576;SDS011;65441;44.748;37.600;2022-12-18T08:49:47;9.52;;;3.10;;
76576;SDS011;65441;44.748;37.600;2022-12-18T08:52:21;8.88;;;2.55;;
76576;SDS011;65441;44.748;37.600;2022-12-18T08:54:55;9.30;;;3.58;;
76576;SDS011;65441;44.748;37.600;2022-12-18T08:57:30;6.97;;;3.08;;
76576;SDS011;65441;44.748;37.600;2022-12-18T09:00:05;9.85;;;2.83;;
76576;SDS011;65441;44.748;37.600;2022-12-18T09:02:40;12.25;;;3.30;;
76576;SDS011;65441;44.748;37.600;2022-12-18T09:05:15;9.65;;;3.03;;
76576;SDS011;65441;44.748;37.600;2022-12-18T09:07:49;11.52;;;3.60;;
76576;SDS011;65441;44.748;37.600;2022-12-18T09:10:23;8.50;;;2.72;;
76576;SDS011;65441;44.748;37.600;2022-12-18T09:15:32;7.15;;;2.85;;
76576;SDS011;65441;44.748;37.600;2022-12-18T09:18:06;11.95;;;3.10;;
76576;SDS011;65441;44.748;37.600;2022-12-18T09:20:40;7.32;;;3.22;;
76576;SDS011;65441;44.748;37.600;2022-12-18T09:23:14;10.82;;;3.35;;
76576;SDS011;65441;44.748;37.600;2022-12-18T09:25:49;8.10;;;3.13;;
76576;SDS011;65441;44.748;37.600;2022-12-18T09:28:24;6.95;;;3.15;;
76576;SDS011;65441;44.748;37.600;2022-12-18T09:31:03;10.82;;;3.17;;
76576;SDS011;65441;44.748;37.600;2022-12-18T09:33:38;9.27;;;3.25;;
76576;SDS011;65441;44.748;37.600;2022-12-18T09:36:13;8.10;;;3.20;;
76576;SDS011;65441;44.748;37.600;2022-12-18T09:38:49;10.60;;;2.97;;
76576;SDS011;65441;44.748;37.600;2022-12-18T09:41:39;10.25;;;3.20;;
76576;SDS011;65441;44.748;37.600;2022-12-18T09:44:20;8.38;;;3.05;;
76576;SDS011;65441;44.748;37.600;2022-12-18T09:47:02;10.13;;;3.55;;
76576;SDS011;65441;44.748;37.600;2022-12-18T09:49:42;9.18;;;3.50;;
76576;SDS011;65441;44.748;37.600;2022-12-18T09:52:18;12.40;;;3.90;;
76576;SDS011;65441;44.748;37.600;2022-12-18T09:54:57;10.90;;;4.03;;
76576;SDS011;65441;44.748;37.600;2022-12-18T09:57:34;11.88;;;3.80;;
76576;SDS011;65441;44.748;37.600;2022-12-18T10:00:16;10.07;;;3.60;;
76576;SDS011;65441;44.748;37.600;2022-12-18T10:02:53;13.27;;;3.60;;
76576;SDS011;65441;44.748;37.600;2022-12-18T10:05:35;8.25;;;3.50;;
76576;SDS011;65441;44.748;37.600;2022-12-18T10:08:16;9.82;;;3.13;;
76576;SDS011;65441;44.748;37.600;2022-12-18T10:10:56;9.07;;;3.35;;
76576;SDS011;65441;44.748;37.600;2022-12-18T10:13:35;8.25;;;4.03;;
76576;SDS011;65441;44.748;37.600;2022-12-18T10:16:17;10.80;;;4.57;;
76576;SDS011;65441;44.748;37.600;2022-12-18T10:18:59;7.85;;;3.42;;
76576;SDS011;65441;44.748;37.600;2022-12-18T10:21:43;12.30;;;4.28;;
76576;SDS011;65441;44.748;37.600;2022-12-18T10:24:26;10.20;;;4.30;;
76576;SDS011;65441;44.748;37.600;2022-12-18T10:27:11;9.48;;;3.55;;
76576;SDS011;65441;44.748;37.600;2022-12-18T10:29:48;11.57;;;3.80;;
76576;SDS011;65441;44.748;37.600;2022-12-18T10:32:25;12.35;;;3.95;;
76576;SDS011;65441;44.748;37.600;2022-12-18T10:35:00;8.75;;;4.03;;
76576;SDS011;65441;44.748;37.600;2022-12-18T10:37:34;10.52;;;4.40;;
76576;SDS011;65441;44.748;37.600;2022-12-18T10:40:10;10.50;;;3.80;;
76576;SDS011;65441;44.748;37.600;2022-12-18T10:42:45;10.35;;;3.85;;
76576;SDS011;65441;44.748;37.600;2022-12-18T10:45:19;14.02;;;5.90;;
76576;SDS011;65441;44.748;37.600;2022-12-18T10:47:54;17.98;;;6.63;;
76576;SDS011;65441;44.748;37.600;2022-12-18T10:50:30;12.98;;;5.28;;
76576;SDS011;65441;44.748;37.600;2022-12-18T10:53:06;15.55;;;8.40;;
76576;SDS011;65441;44.748;37.600;2022-12-18T10:55:50;13.85;;;5.97;;
76576;SDS011;65441;44.748;37.600;2022-12-18T10:58:27;24.63;;;6.72;;
76576;SDS011;65441;44.748;37.600;2022-12-18T11:01:08;12.10;;;5.00;;
76576;SDS011;65441;44.748;37.600;2022-12-18T11:03:45;14.68;;;4.97;;
76576;SDS011;65441;44.748;37.600;2022-12-18T11:06:32;11.85;;;5.30;;
76576;SDS011;65441;44.748;37.600;2022-12-18T11:09:18;13.10;;;4.80;;
76576;SDS011;65441;44.748;37.600;2022-12-18T11:11:54;11.00;;;5.10;;
76576;SDS011;65441;44.748;37.600;2022-12-18T11:14:31;11.18;;;5.30;;
76576;SDS011;65441;44.748;37.600;2022-12-18T11:17:16;11.80;;;5.80;;
76576;SDS011;65441;44.748;37.600;2022-12-18T11:19:53;12.57;;;5.80;;
76576;SDS011;65441;44.748;37.600;2022-12-18T11:22:31;12.07;;;6.10;;
76576;SDS011;65441;44.748;37.600;2022-12-18T11:25:18;13.13;;;6.68;;
76576;SDS011;65441;44.748;37.600;2022-12-18T11:27:54;14.93;;;7.00;;
76576;SDS011;65441;44.748;37.600;2022-12-18T11:30:30;15.73;;;6.82;;
76576;SDS011;65441;44.748;37.600;2022-12-18T11:33:06;14.02;;;6.55;;
76576;SDS011;65441;44.748;37.600;2022-12-18T11:35:46;16.65;;;6.38;;
76576;SDS011;65441;44.748;37.600;2022-12-18T11:38:23;16.48;;;6.85;;
76576;SDS011;65441;44.748;37.600;2022-12-18T11:41:00;13.40;;;6.60;;
76576;SDS011;65441;44.748;37.600;2022-12-18T11:43:38;12.48;;;6.55;;
76576;SDS011;65441;44.748;37.600;2022-12-18T11:46:19;12.60;;;5.95;;
76576;SDS011;65441;44.748;37.600;2022-12-18T11:49:01;12.50;;;5.68;;
76576;SDS011;65441;44.748;37.600;2022-12-18T11:51:43;11.55;;;5.65;;
76576;SDS011;65441;44.748;37.600;2022-12-18T11:54:22;15.10;;;4.90;;
76576;SDS011;65441;44.748;37.600;2022-12-18T11:56:56;13.00;;;5.40;;
76576;SDS011;65441;44.748;37.600;2022-12-18T11:59:37;16.45;;;6.22;;
76576;SDS011;65441;44.748;37.600;2022-12-18T12:02:21;14.52;;;5.20;;
76576;SDS011;65441;44.748;37.600;2022-12-18T12:05:15;13.70;;;6.10;;
76576;SDS011;65441;44.748;37.600;2022-12-18T12:08:04;13.07;;;5.70;;
76576;SDS011;65441;44.748;37.600;2022-12-18T12:10:45;12.95;;;5.43;;
76576;SDS011;65441;44.748;37.600;2022-12-18T12:13:34;14.10;;;6.03;;
76576;SDS011;65441;44.748;37.600;2022-12-18T12:16:16;14.13;;;6.25;;
76576;SDS011;65441;44.748;37.600;2022-12-18T12:21:52;14.88;;;5.93;;
76576;SDS011;65441;44.748;37.600;2022-12-18T12:24:36;13.80;;;5.80;;
76576;SDS011;65441;44.748;37.600;2022-12-18T12:27:19;17.55;;;7.00;;
76576;SDS011;65441;44.748;37.600;2022-12-18T12:30:03;15.90;;;6.60;;
76576;SDS011;65441;44.748;37.600;2022-12-18T12:32:59;15.75;;;7.28;;
76576;SDS011;65441;44.748;37.600;2022-12-18T12:35:46;17.95;;;7.07;;
76576;SDS011;65441;44.748;37.600;2022-12-18T12:38:26;19.48;;;7.38;;
76576;SDS011;65441;44.748;37.600;2022-12-18T12:41:06;19.40;;;7.68;;
76576;SDS011;65441;44.748;37.600;2022-12-18T12:44:04;19.88;;;7.97;;
76576;SDS011;65441;44.748;37.600;2022-12-18T12:46:41;19.58;;;7.22;;
76576;SDS011;65441;44.748;37.600;2022-12-18T12:49:17;24.38;;;8.30;;
76576;SDS011;65441;44.748;37.600;2022-12-18T12:51:59;24.30;;;8.85;;
76576;SDS011;65441;44.748;37.600;2022-12-18T12:54:37;23.60;;;9.48;;
76576;SDS011;65441;44.748;37.600;2022-12-18T12:57:15;23.52;;;9.25;;
76576;SDS011;65441;44.748;37.600;2022-12-18T12:59:57;32.35;;;10.00;;
76576;SDS011;65441;44.748;37.600;2022-12-18T13:02:37;25.77;;;8.65;;
76576;SDS011;65441;44.748;37.600;2022-12-18T13:05:17;27.33;;;9.77;;
76576;SDS011;65441;44.748;37.600;2022-12-18T13:07:59;31.77;;;10.13;;
76576;SDS011;65441;44.748;37.600;2022-12-18T13:10:36;30.58;;;9.75;;
76576;SDS011;65441;44.748;37.600;2022-12-18T13:13:13;25.15;;;8.52;;
76576;SDS011;65441;44.748;37.600;2022-12-18T13:15:47;28.10;;;9.32;;
76576;SDS011;65441;44.748;37.600;2022-12-18T13:18:36;31.85;;;9.60;;
76576;SDS011;65441;44.748;37.600;2022-12-18T13:21:11;21.13;;;8.48;;
76576;SDS011;65441;44.748;37.600;2022-12-18T13:23:53;29.85;;;9.27;;
76576;SDS011;65441;44.748;37.600;2022-12-18T13:26:32;18.35;;;7.95;;
76576;SDS011;65441;44.748;37.600;2022-12-18T13:29:09;25.85;;;7.95;;
76576;SDS011;65441;44.748;37.600;2022-12-18T13:38:18;22.13;;;6.28;;
76576;SDS011;65441;44.748;37.600;2022-12-18T13:40:56;22.95;;;7.43;;
76576;SDS011;65441;44.748;37.600;2022-12-18T13:43:35;23.30;;;7.00;;
76576;SDS011;65441;44.748;37.600;2022-12-18T13:46:20;33.40;;;7.05;;
76576;SDS011;65441;44.748;37.600;2022-12-18T13:48:58;26.77;;;7.75;;
76576;SDS011;65441;44.748;37.600;2022-12-18T13:51:35;20.52;;;7.63;;
76576;SDS011;65441;44.748;37.600;2022-12-18T13:54:17;24.25;;;6.95;;
76576;SDS011;65441;44.748;37.600;2022-12-18T13:56:53;34.28;;;7.88;;
76576;SDS011;65441;44.748;37.600;2022-12-18T14:02:20;14.02;;;5.53;;
76576;SDS011;65441;44.748;37.600;2022-12-18T14:05:02;40.42;;;6.18;;
76576;SDS011;65441;44.748;37.600;2022-12-18T14:07:37;37.45;;;6.75;;
76576;SDS011;65441;44.748;37.600;2022-12-18T14:10:11;16.67;;;5.88;;
76576;SDS011;65441;44.748;37.600;2022-12-18T14:12:49;27.17;;;5.88;;
76576;SDS011;65441;44.748;37.600;2022-12-18T14:15:31;13.90;;;5.65;;
76576;SDS011;65441;44.748;37.600;2022-12-18T14:18:14;27.30;;;6.00;;
76576;SDS011;65441;44.748;37.600;2022-12-18T14:23:29;13.77;;;5.60;;
76576;SDS011;65441;44.748;37.600;2022-12-18T14:26:19;18.38;;;5.47;;
76576;SDS011;65441;44.748;37.600;2022-12-18T14:28:55;14.95;;;5.43;;
76576;SDS011;65441;44.748;37.600;2022-12-18T14:31:30;20.52;;;6.50;;
76576;SDS011;65441;44.748;37.600;2022-12-18T14:34:08;13.50;;;5.88;;
76576;SDS011;65441;44.748;37.600;2022-12-18T14:36:51;13.18;;;5.70;;
76576;SDS011;65441;44.748;37.600;2022-12-18T14:39:27;14.73;;;5.68;;
76576;SDS011;65441;44.748;37.600;2022-12-18T14:42:01;18.17;;;5.05;;
76576;SDS011;65441;44.748;37.600;2022-12-18T14:44:36;14.00;;;4.93;;
76576;SDS011;65441;44.748;37.600;2022-12-18T14:47:12;12.93;;;5.65;;
76576;SDS011;65441;44.748;37.600;2022-12-18T14:49:49;12.40;;;5.55;;
76576;SDS011;65441;44.748;37.600;2022-12-18T14:52:28;10.98;;;6.00;;
76576;SDS011;65441;44.748;37.600;2022-12-18T14:55:05;15.27;;;7.32;;
76576;SDS011;65441;44.748;37.600;2022-12-18T14:57:49;12.75;;;6.78;;
76576;SDS011;65441;44.748;37.600;2022-12-18T15:00:25;15.77;;;6.55;;
76576;SDS011;65441;44.748;37.600;2022-12-18T15:02:59;12.43;;;6.20;;
76576;SDS011;65441;44.748;37.600;2022-12-18T15:05:41;16.52;;;6.35;;
76576;SDS011;65441;44.748;37.600;2022-12-18T15:08:28;13.07;;;6.20;;
76576;SDS011;65441;44.748;37.600;2022-12-18T15:14:22;12.95;;;5.78;;
76576;SDS011;65441;44.748;37.600;2022-12-18T15:17:05;13.50;;;6.10;;
76576;SDS011;65441;44.748;37.600;2022-12-18T15:19:47;11.73;;;6.38;;
76576;SDS011;65441;44.748;37.600;2022-12-18T15:22:26;12.48;;;6.75;;
76576;SDS011;65441;44.748;37.600;2022-12-18T15:25:02;13.75;;;6.57;;
76576;SDS011;65441;44.748;37.600;2022-12-18T15:27:54;13.02;;;5.88;;
76576;SDS011;65441;44.748;37.600;2022-12-18T15:30:28;14.60;;;6.60;;
76576;SDS011;65441;44.748;37.600;2022-12-18T15:33:22;14.20;;;6.72;;
76576;SDS011;65441;44.748;37.600;2022-12-18T15:35:58;11.02;;;5.60;;
76576;SDS011;65441;44.748;37.600;2022-12-18T15:38:34;12.65;;;6.30;;
76576;SDS011;65441;44.748;37.600;2022-12-18T15:41:11;12.25;;;5.57;;
76576;SDS011;65441;44.748;37.600;2022-12-18T15:43:47;11.73;;;5.78;;
76576;SDS011;65441;44.748;37.600;2022-12-18T15:46:22;12.55;;;5.85;;
76576;SDS011;65441;44.748;37.600;2022-12-18T15:48:58;10.63;;;5.63;;
76576;SDS011;65441;44.748;37.600;2022-12-18T15:51:32;10.60;;;5.28;;
76576;SDS011;65441;44.748;37.600;2022-12-18T15:54:10;11.38;;;5.72;;
76576;SDS011;65441;44.748;37.600;2022-12-18T15:56:47;13.02;;;6.25;;
76576;SDS011;65441;44.748;37.600;2022-12-18T15:59:38;17.48;;;6.88;;
76576;SDS011;65441;44.748;37.600;2022-12-18T16:02:24;12.38;;;6.00;;
76576;SDS011;65441;44.748;37.600;2022-12-18T16:04:59;12.85;;;6.43;;
76576;SDS011;65441;44.748;37.600;2022-12-18T16:07:33;10.57;;;5.30;;
76576;SDS011;65441;44.748;37.600;2022-12-18T16:10:09;10.88;;;5.38;;
76576;SDS011;65441;44.748;37.600;2022-12-18T16:16:04;11.00;;;5.40;;
76576;SDS011;65441;44.748;37.600;2022-12-18T16:18:41;12.55;;;5.03;;
76576;SDS011;65441;44.748;37.600;2022-12-18T16:21:21;12.90;;;6.10;;
76576;SDS011;65441;44.748;37.600;2022-12-18T16:23:57;11.57;;;5.72;;
76576;SDS011;65441;44.748;37.600;2022-12-18T16:26:32;10.13;;;5.20;;
76576;SDS011;65441;44.748;37.600;2022-12-18T16:29:11;11.30;;;5.13;;
76576;SDS011;65441;44.748;37.600;2022-12-18T16:31:46;8.90;;;4.57;;
76576;SDS011;65441;44.748;37.600;2022-12-18T16:34:20;9.93;;;5.07;;
76576;SDS011;65441;44.748;37.600;2022-12-18T16:36:58;11.25;;;5.43;;
76576;SDS011;65441;44.748;37.600;2022-12-18T16:39:32;13.23;;;5.68;;
76576;SDS011;65441;44.748;37.600;2022-12-18T16:42:12;13.15;;;5.53;;
76576;SDS011;65441;44.748;37.600;2022-12-18T16:44:48;10.32;;;5.07;;